createdAt,value
2018-05-29T00:01:01.339Z,23.29
2018-05-29T00:02:11.329Z,23.26
2018-05-29T00:03:21.298Z,23.33
2018-05-29T00:04:31.016Z,23.34
2018-05-29T00:05:40.992Z,23.26
2018-05-29T00:06:50.710Z,23.14
2018-05-29T00:08:00.697Z,23.16
2018-05-29T00:09:10.688Z,23.14
2018-05-29T00:10:20.405Z,23.13
2018-05-29T00:11:30.377Z,23.01
2018-05-29T00:12:40.455Z,22.98
2018-05-29T00:13:50.429Z,22.99
2018-05-29T00:15:00.412Z,23.04
2018-05-29T00:16:10.132Z,22.95
2018-05-29T00:17:19.859Z,22.88
2018-05-29T00:18:29.828Z,22.92
2018-05-29T00:19:39.807Z,22.89
2018-05-29T00:20:49.794Z,22.91
2018-05-29T00:21:59.524Z,22.88
2018-05-29T00:23:08.985Z,22.84
2018-05-29T00:24:18.962Z,22.81
2018-05-29T00:25:28.942Z,22.83
2018-05-29T00:26:38.660Z,22.84
2018-05-29T00:27:48.635Z,22.86
2018-05-29T00:28:58.605Z,22.74
2018-05-29T00:30:08.320Z,22.77
2018-05-29T00:31:18.302Z,22.7
2018-05-29T00:32:28.010Z,22.78
2018-05-29T00:33:37.462Z,22.78
2018-05-29T00:34:47.172Z,22.78
2018-05-29T00:35:57.153Z,22.76
2018-05-29T00:37:07.132Z,22.71
2018-05-29T00:38:17.126Z,22.63
2018-05-29T00:39:26.832Z,22.73
2018-05-29T00:40:36.807Z,22.74
2018-05-29T00:41:46.788Z,22.73
2018-05-29T00:42:56.781Z,22.7
2018-05-29T00:44:06.751Z,22.62
2018-05-29T00:45:16.740Z,22.61
2018-05-29T00:46:26.708Z,22.56
2018-05-29T00:47:36.688Z,22.58
2018-05-29T00:48:46.669Z,22.59
2018-05-29T00:49:56.378Z,22.56
2018-05-29T00:51:06.359Z,22.51
2018-05-29T00:52:16.344Z,22.46
2018-05-29T00:53:26.062Z,22.52
2018-05-29T00:54:36.042Z,22.52
2018-05-29T00:55:45.760Z,22.41
2018-05-29T00:56:55.482Z,22.36
2018-05-29T00:58:05.618Z,22.37
2018-05-29T00:59:15.328Z,22.36
2018-05-29T01:00:25.044Z,22.34
2018-05-29T01:01:35.025Z,22.3
2018-05-29T01:02:45.009Z,22.36
2018-05-29T01:03:54.980Z,22.25
2018-05-29T01:05:04.959Z,22.28
2018-05-29T01:06:14.937Z,22.22
2018-05-29T01:07:24.401Z,22.18
2018-05-29T01:08:34.375Z,22.19
2018-05-29T01:09:44.086Z,22.14
2018-05-29T01:10:53.806Z,22.16
2018-05-29T01:12:03.774Z,22.07
2018-05-29T01:13:13.481Z,22.07
2018-05-29T01:14:23.455Z,22.19
2018-05-29T01:15:33.437Z,22.16
2018-05-29T01:16:43.404Z,22.18
2018-05-29T01:17:53.129Z,22.18
2018-05-29T01:19:03.099Z,22.14
2018-05-29T01:20:13.083Z,22.15
2018-05-29T01:21:23.107Z,22.16
2018-05-29T01:22:32.829Z,22.07
2018-05-29T01:23:42.549Z,22.06
2018-05-29T01:24:52.518Z,22.08
2018-05-29T01:26:02.516Z,21.97
2018-05-29T01:27:12.237Z,22.06
2018-05-29T01:28:22.221Z,22
2018-05-29T01:29:32.193Z,21.99
2018-05-29T01:30:42.160Z,22.03
2018-05-29T01:31:51.864Z,21.99
2018-05-29T01:33:01.583Z,21.94
2018-05-29T01:34:11.658Z,21.99
2018-05-29T01:35:21.636Z,21.94
2018-05-29T01:36:31.603Z,21.92
2018-05-29T01:37:41.578Z,21.88
2018-05-29T01:38:51.549Z,21.91
2018-05-29T01:40:01.523Z,21.83
2018-05-29T01:41:11.517Z,21.84
2018-05-29T01:42:20.977Z,21.75
2018-05-29T01:43:30.694Z,21.74
2018-05-29T01:44:40.683Z,21.69
2018-05-29T01:45:50.398Z,21.7
2018-05-29T01:47:00.370Z,21.66
2018-05-29T01:48:10.353Z,21.62
2018-05-29T01:49:20.334Z,21.68
2018-05-29T01:50:30.321Z,21.66
2018-05-29T01:51:40.037Z,21.6
2018-05-29T01:52:50.007Z,21.53
2018-05-29T01:53:59.992Z,21.56
2018-05-29T01:55:09.700Z,21.6
2018-05-29T01:56:19.681Z,21.6
2018-05-29T01:57:29.648Z,21.53
2018-05-29T01:58:39.615Z,21.54
2018-05-29T01:59:49.605Z,21.58
2018-05-29T02:00:59.582Z,21.43
2018-05-29T02:02:09.308Z,21.53
2018-05-29T02:03:19.299Z,21.43
2018-05-29T02:04:29.372Z,21.43
2018-05-29T02:05:39.297Z,21.4
2018-05-29T02:06:49.021Z,21.44
2018-05-29T02:07:58.987Z,21.41
2018-05-29T02:09:08.963Z,21.47
2018-05-29T02:10:18.956Z,21.33
2018-05-29T02:11:28.932Z,21.35
2018-05-29T02:12:38.648Z,21.3
2018-05-29T02:13:48.373Z,21.33
2018-05-29T02:14:58.350Z,21.28
2018-05-29T02:16:08.066Z,21.32
2018-05-29T02:17:18.036Z,21.29
2018-05-29T02:18:28.018Z,21.29
2018-05-29T02:19:37.475Z,21.23
2018-05-29T02:20:47.191Z,21.17
2018-05-29T02:21:57.166Z,21.15
2018-05-29T02:23:06.879Z,21.14
2018-05-29T02:24:16.597Z,21.19
2018-05-29T02:25:26.578Z,21.17
2018-05-29T02:26:36.285Z,21.14
2018-05-29T02:27:45.741Z,21.15
2018-05-29T02:28:55.465Z,21.04
2018-05-29T02:30:05.449Z,21.07
2018-05-29T02:31:15.447Z,21.1
2018-05-29T02:32:25.169Z,21.04
2018-05-29T02:33:34.894Z,21.04
2018-05-29T02:34:44.903Z,20.96
2018-05-29T02:35:54.872Z,20.92
2018-05-29T02:37:04.853Z,20.89
2018-05-29T02:38:14.828Z,20.9
2018-05-29T02:39:24.809Z,20.98
2018-05-29T02:40:34.783Z,20.89
2018-05-29T02:41:44.764Z,20.92
2018-05-29T02:42:54.774Z,20.86
2018-05-29T02:44:04.493Z,20.9
2018-05-29T02:45:14.484Z,20.9
2018-05-29T02:46:24.473Z,20.85
2018-05-29T02:47:34.453Z,20.82
2018-05-29T02:48:44.433Z,20.8
2018-05-29T02:49:54.414Z,20.86
2018-05-29T02:51:04.393Z,20.77
2018-05-29T02:52:14.109Z,20.74
2018-05-29T02:53:24.081Z,20.77
2018-05-29T02:54:34.052Z,20.67
2018-05-29T02:55:43.509Z,20.64
2018-05-29T02:56:53.488Z,20.66
2018-05-29T02:58:03.472Z,20.63
2018-05-29T02:59:13.435Z,20.63
2018-05-29T03:00:23.416Z,20.67
2018-05-29T03:01:32.870Z,20.68
2018-05-29T03:02:42.851Z,20.63
2018-05-29T03:03:52.840Z,20.63
2018-05-29T03:05:02.812Z,20.63
2018-05-29T03:06:12.262Z,20.59
2018-05-29T03:07:22.241Z,20.55
2018-05-29T03:08:32.222Z,20.55
2018-05-29T03:09:42.204Z,20.58
2018-05-29T03:10:52.176Z,20.58
2018-05-29T03:12:02.144Z,20.53
2018-05-29T03:13:12.118Z,20.5
2018-05-29T03:14:22.098Z,20.48
2018-05-29T03:15:31.806Z,20.52
2018-05-29T03:16:41.766Z,20.52
2018-05-29T03:17:51.739Z,20.58
2018-05-29T03:19:01.722Z,20.39
2018-05-29T03:20:11.707Z,20.44
2018-05-29T03:21:21.421Z,20.32
2018-05-29T03:22:31.400Z,20.32
2018-05-29T03:23:41.377Z,20.32
2018-05-29T03:24:51.355Z,20.37
2018-05-29T03:26:01.347Z,20.36
2018-05-29T03:27:10.796Z,20.33
2018-05-29T03:28:20.774Z,20.44
2018-05-29T03:29:30.755Z,20.44
2018-05-29T03:30:40.475Z,20.3
2018-05-29T03:31:50.201Z,20.42
2018-05-29T03:33:00.200Z,20.4
2018-05-29T03:34:10.179Z,20.46
2018-05-29T03:35:20.167Z,20.48
2018-05-29T03:36:30.139Z,20.44
2018-05-29T03:37:39.857Z,20.32
2018-05-29T03:38:49.847Z,20.42
2018-05-29T03:39:59.581Z,20.46
2018-05-29T03:41:09.303Z,20.42
2018-05-29T03:42:19.287Z,20.46
2018-05-29T03:43:29.298Z,20.33
2018-05-29T03:44:39.013Z,20.44
2018-05-29T03:45:48.992Z,20.37
2018-05-29T03:46:58.956Z,20.37
2018-05-29T03:48:08.922Z,20.39
2018-05-29T03:49:18.371Z,20.46
2018-05-29T03:50:27.824Z,20.39
2018-05-29T03:51:37.803Z,20.37
2018-05-29T03:52:47.524Z,20.46
2018-05-29T03:53:57.240Z,20.44
2018-05-29T03:55:07.219Z,20.4
2018-05-29T03:56:17.189Z,20.44
2018-05-29T03:57:27.171Z,20.48
2018-05-29T03:58:37.147Z,20.4
2018-05-29T03:59:46.850Z,20.48
2018-05-29T04:00:56.556Z,20.48
2018-05-29T04:02:06.539Z,20.5
2018-05-29T04:03:16.516Z,20.52
2018-05-29T04:04:26.485Z,20.42
2018-05-29T04:05:36.457Z,20.46
2018-05-29T04:06:46.426Z,20.56
2018-05-29T04:07:56.393Z,20.4
2018-05-29T04:09:06.104Z,20.55
2018-05-29T04:10:16.085Z,20.49
2018-05-29T04:11:25.799Z,20.53
2018-05-29T04:12:35.777Z,20.46
2018-05-29T04:13:45.237Z,20.5
2018-05-29T04:14:55.226Z,20.55
2018-05-29T04:16:05.206Z,20.53
2018-05-29T04:17:15.176Z,20.64
2018-05-29T04:18:24.884Z,20.68
2018-05-29T04:19:34.868Z,20.6
2018-05-29T04:20:44.843Z,20.67
2018-05-29T04:21:54.831Z,20.7
2018-05-29T04:23:04.558Z,20.7
2018-05-29T04:24:14.530Z,20.77
2018-05-29T04:25:24.250Z,20.73
2018-05-29T04:26:33.975Z,20.83
2018-05-29T04:27:43.688Z,20.71
2018-05-29T04:28:53.414Z,20.78
2018-05-29T04:30:02.875Z,20.75
2018-05-29T04:31:12.837Z,20.83
2018-05-29T04:32:22.289Z,20.83
2018-05-29T04:33:32.002Z,20.89
2018-05-29T04:34:41.716Z,20.88
2018-05-29T04:35:51.175Z,20.89
2018-05-29T04:37:01.142Z,21.01
2018-05-29T04:38:11.114Z,20.98
2018-05-29T04:39:21.087Z,21.01
2018-05-29T04:40:31.075Z,21.05
2018-05-29T04:41:40.787Z,21.04
2018-05-29T04:42:50.764Z,21.03
2018-05-29T04:44:00.740Z,21.08
2018-05-29T04:45:10.459Z,21.03
2018-05-29T04:46:20.441Z,21.03
2018-05-29T04:47:30.420Z,21.05
2018-05-29T04:48:40.149Z,21.03
2018-05-29T04:49:49.960Z,21.11
2018-05-29T04:50:59.713Z,21.19
2018-05-29T04:52:09.443Z,21.13
2018-05-29T04:53:19.430Z,21.19
2018-05-29T04:54:29.403Z,21.14
2018-05-29T04:55:39.129Z,21.11
2018-05-29T04:56:48.864Z,21.17
2018-05-29T04:57:58.843Z,21.17
2018-05-29T04:59:08.825Z,21.2
2018-05-29T05:00:18.799Z,21.17
2018-05-29T05:01:28.798Z,21.22
2018-05-29T05:02:38.982Z,21.2
2018-05-29T05:03:48.980Z,21.15
2018-05-29T05:04:58.701Z,21.17
2018-05-29T05:06:08.690Z,21.14
2018-05-29T05:07:18.161Z,21.2
2018-05-29T05:08:27.892Z,21.13
2018-05-29T05:09:37.859Z,21.23
2018-05-29T05:10:47.324Z,21.23
2018-05-29T05:11:57.062Z,21.29
2018-05-29T05:13:07.055Z,21.32
2018-05-29T05:14:17.037Z,21.28
2018-05-29T05:15:27.005Z,21.32
2018-05-29T05:16:36.985Z,21.32
2018-05-29T05:17:46.691Z,21.3
2018-05-29T05:18:56.397Z,21.44
2018-05-29T05:20:06.376Z,21.43
2018-05-29T05:21:16.168Z,21.43
2018-05-29T05:22:25.365Z,21.56
2018-05-29T05:23:35.203Z,21.56
2018-05-29T05:24:45.304Z,21.54
2018-05-29T05:25:55.022Z,21.56
2018-05-29T05:27:05.024Z,21.58
2018-05-29T05:28:15.023Z,21.6
2018-05-29T05:29:25.025Z,21.63
2018-05-29T05:30:35.119Z,21.63
2018-05-29T05:31:45.163Z,21.72
2018-05-29T05:32:55.194Z,21.78
2018-05-29T05:34:05.205Z,21.85
2018-05-29T05:35:14.944Z,21.88
2018-05-29T05:36:25.198Z,21.89
2018-05-29T05:37:35.210Z,21.92
2018-05-29T05:38:45.183Z,22.07
2018-05-29T05:39:55.180Z,22.03
2018-05-29T05:41:05.390Z,22.04
2018-05-29T05:42:14.871Z,22.16
2018-05-29T05:43:24.861Z,22.15
2018-05-29T05:44:34.574Z,22.1
2018-05-29T05:45:44.558Z,22.16
2018-05-29T05:46:54.556Z,22.22
2018-05-29T05:48:04.038Z,22.26
2018-05-29T05:49:14.014Z,22.31
2018-05-29T05:50:23.747Z,22.3
2018-05-29T05:51:33.737Z,22.37
2018-05-29T05:52:43.809Z,22.41
2018-05-29T05:53:53.963Z,22.36
2018-05-29T05:55:03.414Z,22.52
2018-05-29T05:56:13.157Z,22.59
2018-05-29T05:57:23.131Z,22.52
2018-05-29T05:58:33.320Z,22.62
2018-05-29T05:59:43.430Z,22.73
2018-05-29T06:00:53.408Z,22.73
2018-05-29T06:02:03.384Z,22.83
2018-05-29T06:03:13.106Z,22.76
2018-05-29T06:04:23.100Z,22.88
2018-05-29T06:05:33.238Z,22.88
2018-05-29T06:06:43.240Z,22.84
2018-05-29T06:07:53.256Z,22.95
2018-05-29T06:09:03.237Z,22.96
2018-05-29T06:10:13.232Z,22.98
2018-05-29T06:11:23.237Z,23.04
2018-05-29T06:12:33.251Z,23.02
2018-05-29T06:13:42.979Z,23.11
2018-05-29T06:14:52.967Z,23.14
2018-05-29T06:16:02.770Z,23.26
2018-05-29T06:17:12.783Z,23.32
2018-05-29T06:18:22.788Z,23.33
2018-05-29T06:19:32.768Z,23.34
2018-05-29T06:20:42.513Z,23.4
2018-05-29T06:21:52.312Z,23.49
2018-05-29T06:23:01.798Z,23.52
2018-05-29T06:24:11.811Z,23.54
2018-05-29T06:25:21.823Z,23.62
2018-05-29T06:26:31.802Z,23.63
2018-05-29T06:27:41.797Z,23.73
2018-05-29T06:28:51.793Z,23.74
2018-05-29T06:30:01.543Z,23.7
2018-05-29T06:31:11.281Z,23.79
2018-05-29T06:32:21.266Z,23.85
2018-05-29T06:33:31.246Z,23.89
2018-05-29T06:34:40.979Z,23.94
2018-05-29T06:35:50.970Z,23.96
2018-05-29T06:37:00.716Z,23.92
2018-05-29T06:38:10.747Z,23.96
2018-05-29T06:39:20.808Z,24
2018-05-29T06:40:30.793Z,24.13
2018-05-29T06:41:40.796Z,24.19
2018-05-29T06:42:50.511Z,24.19
2018-05-29T06:44:00.554Z,24.22
2018-05-29T06:45:10.844Z,24.31
2018-05-29T06:46:20.951Z,24.29
2018-05-29T06:47:30.677Z,24.34
2018-05-29T06:48:40.678Z,24.51
2018-05-29T06:49:50.391Z,24.56
2018-05-29T06:51:00.368Z,24.58
2018-05-29T06:52:09.852Z,24.61
2018-05-29T06:53:19.842Z,24.71
2018-05-29T06:54:29.825Z,24.71
2018-05-29T06:55:39.556Z,24.81
2018-05-29T06:56:49.558Z,24.79
2018-05-29T06:57:59.548Z,24.86
2018-05-29T06:59:09.271Z,25.01
2018-05-29T07:00:19.271Z,25.01
2018-05-29T07:01:29.240Z,25.06
2018-05-29T07:02:39.260Z,25.11
2018-05-29T07:03:49.008Z,25.11
2018-05-29T07:04:58.614Z,25.29
2018-05-29T07:06:08.618Z,25.31
2018-05-29T07:07:18.344Z,25.29
2018-05-29T07:08:28.333Z,25.33
2018-05-29T07:09:38.318Z,25.41
2018-05-29T07:10:48.058Z,25.36
2018-05-29T07:11:58.058Z,25.56
2018-05-29T07:13:08.044Z,25.52
2018-05-29T07:14:17.517Z,25.7
2018-05-29T07:15:27.580Z,25.56
2018-05-29T07:16:37.558Z,25.71
2018-05-29T07:17:47.544Z,25.77
2018-05-29T07:18:57.279Z,25.78
2018-05-29T07:20:07.021Z,25.88
2018-05-29T07:21:16.728Z,25.92
2018-05-29T07:22:26.455Z,25.95
2018-05-29T07:23:36.455Z,25.91
2018-05-29T07:24:46.594Z,26.04
2018-05-29T07:25:56.650Z,26.07
2018-05-29T07:27:06.636Z,26.1
2018-05-29T07:28:16.685Z,26.18
2018-05-29T07:29:26.667Z,26.23
2018-05-29T07:30:36.684Z,26.3
2018-05-29T07:31:46.679Z,26.41
2018-05-29T07:32:56.687Z,26.37
2018-05-29T07:34:06.152Z,26.45
2018-05-29T07:35:15.891Z,26.59
2018-05-29T07:36:25.909Z,26.61
2018-05-29T07:37:35.395Z,26.6
2018-05-29T07:38:45.403Z,26.64
2018-05-29T07:39:55.473Z,26.7
2018-05-29T07:41:05.195Z,26.7
2018-05-29T07:42:14.943Z,26.73
2018-05-29T07:43:24.660Z,26.74
2018-05-29T07:44:34.703Z,26.83
2018-05-29T07:45:44.172Z,26.83
2018-05-29T07:46:54.159Z,26.91
2018-05-29T07:48:03.905Z,26.89
2018-05-29T07:49:14.152Z,26.88
2018-05-29T07:50:24.149Z,26.92
2018-05-29T07:51:34.161Z,27
2018-05-29T07:52:43.884Z,27.03
2018-05-29T07:53:53.958Z,27.04
2018-05-29T07:55:04.042Z,27.15
2018-05-29T07:56:14.035Z,27.13
2018-05-29T07:57:23.997Z,27.26
2018-05-29T07:58:33.729Z,27.3
2018-05-29T07:59:43.719Z,27.4
2018-05-29T08:00:53.721Z,27.55
2018-05-29T08:02:03.722Z,27.6
2018-05-29T08:03:13.727Z,27.5
2018-05-29T08:04:23.735Z,27.58
2018-05-29T08:05:33.760Z,27.61
2018-05-29T08:06:43.507Z,27.63
2018-05-29T08:07:53.276Z,27.71
2018-05-29T08:09:03.300Z,27.76
2018-05-29T08:10:13.342Z,27.66
2018-05-29T08:11:23.076Z,27.63
2018-05-29T08:12:33.082Z,27.79
2018-05-29T08:13:43.082Z,27.72
2018-05-29T08:14:52.593Z,27.81
2018-05-29T08:16:02.590Z,27.75
2018-05-29T08:17:12.571Z,27.82
2018-05-29T08:18:22.315Z,27.91
2018-05-29T08:19:32.310Z,27.94
2018-05-29T08:20:42.070Z,27.97
2018-05-29T08:21:52.116Z,27.94
2018-05-29T08:23:02.126Z,27.93
2018-05-29T08:24:12.110Z,27.78
2018-05-29T08:25:21.853Z,27.75
2018-05-29T08:26:31.636Z,27.79
2018-05-29T08:27:41.874Z,27.73
2018-05-29T08:28:51.913Z,27.86
2018-05-29T08:30:02.031Z,27.81
2018-05-29T08:31:12.131Z,27.76
2018-05-29T08:32:21.869Z,27.94
2018-05-29T08:33:31.650Z,28.12
2018-05-29T08:34:41.678Z,28.3
2018-05-29T08:35:51.689Z,28.53
2018-05-29T08:37:01.212Z,28.64
2018-05-29T08:38:11.227Z,28.77
2018-05-29T08:39:20.859Z,29.09
2018-05-29T08:40:30.863Z,29.13
2018-05-29T08:41:40.853Z,29.28
2018-05-29T08:42:50.581Z,29.4
2018-05-29T08:44:00.314Z,29.59
2018-05-29T08:45:10.082Z,29.5
2018-05-29T08:46:19.884Z,29.47
2018-05-29T08:47:29.783Z,29.43
2018-05-29T08:48:39.512Z,29.49
2018-05-29T08:49:49.502Z,29.53
2018-05-29T08:50:59.500Z,29.52
2018-05-29T08:52:09.491Z,29.57
2018-05-29T08:53:19.498Z,29.58
2018-05-29T08:54:29.511Z,29.65
2018-05-29T08:55:39.523Z,29.9
2018-05-29T08:56:49.627Z,30.21
2018-05-29T08:57:59.731Z,30.23
2018-05-29T08:59:09.737Z,30.31
2018-05-29T09:00:19.467Z,30.49
2018-05-29T09:01:29.461Z,30.48
2018-05-29T09:02:39.482Z,30.49
2018-05-29T09:03:49.622Z,30.43
2018-05-29T09:05:00.122Z,30.46
2018-05-29T09:06:10.189Z,30.58
2018-05-29T09:07:20.187Z,30.86
2018-05-29T09:08:30.195Z,31.04
2018-05-29T09:09:40.207Z,31.13
2018-05-29T09:10:50.010Z,31.17
2018-05-29T09:12:00.258Z,31.29
2018-05-29T09:13:10.258Z,31.41
2018-05-29T09:14:19.995Z,31.52
2018-05-29T09:15:30.002Z,31.17
2018-05-29T09:16:40.011Z,31.52
2018-05-29T09:17:50.005Z,31.57
2018-05-29T09:18:59.999Z,31.62
2018-05-29T09:20:10.199Z,31.6
2018-05-29T09:21:19.972Z,31.62
2018-05-29T09:22:29.713Z,31.3
2018-05-29T09:23:39.710Z,31.41
2018-05-29T09:24:49.724Z,31.52
2018-05-29T09:25:59.769Z,31.59
2018-05-29T09:27:09.867Z,31.48
2018-05-29T09:28:19.868Z,31.37
2018-05-29T09:29:29.875Z,31.13
2018-05-29T09:30:39.999Z,31.11
2018-05-29T09:31:49.481Z,31.02
2018-05-29T09:32:59.548Z,31.14
2018-05-29T09:34:09.541Z,31.32
2018-05-29T09:35:19.520Z,31.41
2018-05-29T09:36:29.277Z,31.51
2018-05-29T09:37:39.322Z,31.51
2018-05-29T09:38:49.441Z,31.41
2018-05-29T09:39:59.222Z,31.35
2018-05-29T09:41:09.234Z,31.42
2018-05-29T09:42:19.245Z,31.5
2018-05-29T09:43:29.256Z,31.77
2018-05-29T09:44:39.089Z,31.98
2018-05-29T09:45:49.079Z,31.81
2018-05-29T09:46:59.313Z,31.85
2018-05-29T09:48:08.811Z,32.01
2018-05-29T09:49:18.649Z,32.01
2018-05-29T09:50:28.373Z,31.97
2018-05-29T09:51:38.126Z,32
2018-05-29T09:52:48.210Z,32.01
2018-05-29T09:53:57.983Z,32.07
2018-05-29T09:55:07.715Z,32.17
2018-05-29T09:56:17.510Z,32.09
2018-05-29T09:57:27.532Z,32.09
2018-05-29T09:58:36.998Z,32.27
2018-05-29T09:59:46.750Z,32.51
2018-05-29T10:00:56.486Z,32.75
2018-05-29T10:02:05.973Z,32.71
2018-05-29T10:03:15.974Z,32.61
2018-05-29T10:04:25.975Z,32.61
2018-05-29T10:05:35.735Z,32.44
2018-05-29T10:06:45.775Z,32.37
2018-05-29T10:07:55.754Z,32.3
2018-05-29T10:09:05.759Z,32.59
2018-05-29T10:10:15.499Z,32.68
2018-05-29T10:11:25.742Z,33.05
2018-05-29T10:12:35.472Z,33.05
2018-05-29T10:13:45.248Z,33.22
2018-05-29T10:14:55.276Z,33.05
2018-05-29T10:16:05.011Z,33.13
2018-05-29T10:17:14.803Z,33.13
2018-05-29T10:18:24.802Z,33.19
2018-05-29T10:19:34.807Z,32.73
2018-05-29T10:20:44.538Z,32.67
2018-05-29T10:21:54.257Z,32.78
2018-05-29T10:23:04.258Z,32.66
2018-05-29T10:24:14.257Z,32.54
2018-05-29T10:25:23.732Z,32.71
2018-05-29T10:26:33.467Z,32.75
2018-05-29T10:27:43.473Z,32.91
2018-05-29T10:28:53.462Z,33.13
2018-05-29T10:30:03.496Z,33.53
2018-05-29T10:31:13.542Z,33.84
2018-05-29T10:32:23.538Z,33.98
2018-05-29T10:33:33.596Z,34.4
2018-05-29T10:34:43.349Z,34.65
2018-05-29T10:35:53.373Z,34.93
2018-05-29T10:37:03.381Z,34.89
2018-05-29T10:38:13.381Z,34.7
2018-05-29T10:39:23.385Z,34.37
2018-05-29T10:40:33.389Z,34.06
2018-05-29T10:41:43.158Z,34.22
2018-05-29T10:42:53.146Z,34.48
2018-05-29T10:44:02.865Z,34.66
2018-05-29T10:45:12.892Z,34.65
2018-05-29T10:46:22.895Z,34.65
2018-05-29T10:47:32.908Z,34.63
2018-05-29T10:48:42.903Z,34.63
2018-05-29T10:49:52.922Z,34.62
2018-05-29T10:51:02.682Z,34.4
2018-05-29T10:52:12.423Z,34.4
2018-05-29T10:53:22.444Z,34.51
2018-05-29T10:54:32.475Z,34.32
2018-05-29T10:55:42.538Z,34.55
2018-05-29T10:56:52.531Z,34.56
2018-05-29T10:58:02.570Z,34.37
2018-05-29T10:59:12.776Z,34.4
2018-05-29T11:00:22.630Z,34.41
2018-05-29T11:01:32.629Z,34.5
2018-05-29T11:02:42.626Z,34.5
2018-05-29T11:03:52.113Z,34.32
2018-05-29T11:05:02.137Z,34.43
2018-05-29T11:06:12.160Z,34.53
2018-05-29T11:07:21.891Z,34.59
2018-05-29T11:08:31.691Z,34.53
2018-05-29T11:09:41.684Z,34.86
2018-05-29T11:10:51.439Z,35.19
2018-05-29T11:12:01.443Z,35.01
2018-05-29T11:13:11.171Z,34.79
2018-05-29T11:14:21.344Z,34.75
2018-05-29T11:15:31.403Z,34.81
2018-05-29T11:16:41.425Z,34.63
2018-05-29T11:17:51.187Z,34.33
2018-05-29T11:19:00.939Z,34.46
2018-05-29T11:20:11.279Z,34.35
2018-05-29T11:21:21.299Z,34.43
2018-05-29T11:22:31.306Z,34.55
2018-05-29T11:23:41.310Z,34.47
2018-05-29T11:24:51.064Z,34.21
2018-05-29T11:26:01.080Z,34
2018-05-29T11:27:11.095Z,33.85
2018-05-29T11:28:20.848Z,33.79
2018-05-29T11:29:30.848Z,33.82
2018-05-29T11:30:40.344Z,33.94
2018-05-29T11:31:50.342Z,34.19
2018-05-29T11:33:00.325Z,34.41
2018-05-29T11:34:10.317Z,34.4
2018-05-29T11:35:20.329Z,34.44
2018-05-29T11:36:30.070Z,34.56
2018-05-29T11:37:40.061Z,34.66
2018-05-29T11:38:50.057Z,35.05
2018-05-29T11:39:59.804Z,35.39
2018-05-29T11:41:09.553Z,35.57
2018-05-29T11:42:19.542Z,35.42
2018-05-29T11:43:29.685Z,35.25
2018-05-29T11:44:39.747Z,35.49
2018-05-29T11:45:49.769Z,35.25
2018-05-29T11:46:59.240Z,34.96
2018-05-29T11:48:08.995Z,34.89
2018-05-29T11:49:18.993Z,34.59
2018-05-29T11:50:28.743Z,34.26
2018-05-29T11:51:38.479Z,34.46
2018-05-29T11:52:48.229Z,34.63
2018-05-29T11:53:58.237Z,34.71
2018-05-29T11:55:07.976Z,34.7
2018-05-29T11:56:18.012Z,34.88
2018-05-29T11:57:28.021Z,34.82
2018-05-29T11:58:38.028Z,34.98
2018-05-29T11:59:47.801Z,35.01
2018-05-29T12:00:57.539Z,35.1
2018-05-29T12:02:07.305Z,35.18
2018-05-29T12:03:17.324Z,35.35
2018-05-29T12:04:27.305Z,35.93
2018-05-29T12:05:37.037Z,36.63
2018-05-29T12:06:47.027Z,37.29
2018-05-29T12:07:56.766Z,37.95
2018-05-29T12:09:06.239Z,38.23
2018-05-29T12:10:15.975Z,37.67
2018-05-29T12:11:25.977Z,37.56
2018-05-29T12:12:35.757Z,37.53
2018-05-29T12:13:45.763Z,37.75
2018-05-29T12:14:55.758Z,38.04
2018-05-29T12:16:05.781Z,37.97
2018-05-29T12:17:15.830Z,37.76
2018-05-29T12:18:25.837Z,37.56
2018-05-29T12:19:35.598Z,37.8
2018-05-29T12:20:45.617Z,37.91
2018-05-29T12:21:55.639Z,38.13
2018-05-29T12:23:05.375Z,38.2
2018-05-29T12:24:15.392Z,37.83
2018-05-29T12:25:25.149Z,37.19
2018-05-29T12:26:35.158Z,36.5
2018-05-29T12:27:44.917Z,36.28
2018-05-29T12:28:54.938Z,36.06
2018-05-29T12:30:04.938Z,36.2
2018-05-29T12:31:14.695Z,36.35
2018-05-29T12:32:24.698Z,36.65
2018-05-29T12:33:34.860Z,36.63
2018-05-29T12:34:44.594Z,36.47
2018-05-29T12:35:54.605Z,36.43
2018-05-29T12:37:04.596Z,36.35
2018-05-29T12:38:14.329Z,36.26
2018-05-29T12:39:24.326Z,36.08
2018-05-29T12:40:34.070Z,36.13
2018-05-29T12:41:44.077Z,36.59
2018-05-29T12:42:54.074Z,36.78
2018-05-29T12:44:04.077Z,36.91
2018-05-29T12:45:14.093Z,37.03
2018-05-29T12:46:24.541Z,36.72
2018-05-29T12:47:34.594Z,36.45
2018-05-29T12:48:44.577Z,36.35
2018-05-29T12:49:54.570Z,35.98
2018-05-29T12:51:04.314Z,35.97
2018-05-29T12:52:14.048Z,35.98
2018-05-29T12:53:23.892Z,35.63
2018-05-29T12:54:33.637Z,35.57
2018-05-29T12:55:43.628Z,35.53
2018-05-29T12:56:53.637Z,35.42
2018-05-29T12:58:03.644Z,35.47
2018-05-29T12:59:13.810Z,35.61
2018-05-29T13:00:23.824Z,35.61
2018-05-29T13:01:33.557Z,35.97
2018-05-29T13:02:43.565Z,36.13
2018-05-29T13:03:53.596Z,35.84
2018-05-29T13:05:03.340Z,35.57
2018-05-29T13:06:13.355Z,35.81
2018-05-29T13:07:23.374Z,35.88
2018-05-29T13:08:33.393Z,36.25
2018-05-29T13:09:43.140Z,36.26
2018-05-29T13:10:53.146Z,36.18
2018-05-29T13:12:02.894Z,36.2
2018-05-29T13:13:12.906Z,36.26
2018-05-29T13:14:22.918Z,36.17
2018-05-29T13:15:32.958Z,36.03
2018-05-29T13:16:43.112Z,36.22
2018-05-29T13:17:53.258Z,35.97
2018-05-29T13:19:03.001Z,36.22
2018-05-29T13:20:12.997Z,36.35
2018-05-29T13:21:22.975Z,36.8
2018-05-29T13:22:33.112Z,37.09
2018-05-29T13:23:42.969Z,37.07
2018-05-29T13:24:52.718Z,37.06
2018-05-29T13:26:02.436Z,36.6
2018-05-29T13:27:12.074Z,36.32
2018-05-29T13:28:21.723Z,36.24
2018-05-29T13:29:31.740Z,36
2018-05-29T13:30:41.740Z,35.81
2018-05-29T13:31:51.740Z,35.87
2018-05-29T13:33:01.477Z,35.66
2018-05-29T13:34:11.487Z,35.75
2018-05-29T13:35:21.719Z,35.82
2018-05-29T13:36:31.729Z,36.01
2018-05-29T13:37:41.730Z,35.78
2018-05-29T13:38:51.758Z,35.88
2018-05-29T13:40:01.755Z,35.96
2018-05-29T13:41:11.771Z,36.01
2018-05-29T13:42:21.265Z,36.28
2018-05-29T13:43:30.746Z,36.66
2018-05-29T13:44:40.739Z,36.51
2018-05-29T13:45:50.550Z,36.33
2018-05-29T13:47:00.282Z,36.36
2018-05-29T13:48:09.770Z,36.39
2018-05-29T13:49:19.921Z,36.75
2018-05-29T13:50:29.663Z,36.8
2018-05-29T13:51:39.674Z,36.92
2018-05-29T13:52:49.693Z,37.09
2018-05-29T13:53:59.711Z,36.47
2018-05-29T13:55:09.717Z,36.29
2018-05-29T13:56:19.719Z,35.9
2018-05-29T13:57:29.771Z,35.6
2018-05-29T13:58:39.782Z,35.53
2018-05-29T13:59:49.945Z,35.66
2018-05-29T14:00:59.964Z,35.81
2018-05-29T14:02:09.971Z,36.09
2018-05-29T14:03:20.008Z,36.31
2018-05-29T14:04:30.099Z,36.91
2018-05-29T14:05:40.106Z,37.37
2018-05-29T14:06:49.878Z,37.43
2018-05-29T14:07:59.896Z,37.98
2018-05-29T14:09:09.754Z,38.35
2018-05-29T14:10:19.485Z,38.34
2018-05-29T14:11:29.495Z,38.04
2018-05-29T14:12:39.249Z,37.41
2018-05-29T14:13:49.254Z,37.43
2018-05-29T14:14:59.256Z,37.44
2018-05-29T14:16:09.010Z,37.86
2018-05-29T14:17:18.775Z,38.04
2018-05-29T14:18:28.780Z,38.38
2018-05-29T14:19:38.836Z,38.54
2018-05-29T14:20:48.332Z,38.19
2018-05-29T14:21:58.338Z,37.57
2018-05-29T14:23:08.351Z,37.14
2018-05-29T14:24:18.361Z,37.19
2018-05-29T14:25:28.383Z,37.47
2018-05-29T14:26:37.915Z,37.43
2018-05-29T14:27:47.926Z,37.75
2018-05-29T14:28:57.924Z,37.63
2018-05-29T14:30:07.924Z,37.86
2018-05-29T14:31:17.677Z,38.16
2018-05-29T14:32:27.685Z,38.27
2018-05-29T14:33:37.710Z,38.6
2018-05-29T14:34:47.740Z,38.56
2018-05-29T14:35:57.468Z,38.35
2018-05-29T14:37:07.462Z,38.16
2018-05-29T14:38:17.465Z,38.14
2018-05-29T14:39:27.488Z,38.22
2018-05-29T14:40:37.229Z,38.41
2018-05-29T14:41:46.980Z,38.79
2018-05-29T14:42:56.724Z,39.04
2018-05-29T14:44:07.120Z,38.96
2018-05-29T14:45:17.339Z,38.32
2018-05-29T14:46:26.810Z,37.79
2018-05-29T14:47:36.811Z,37
2018-05-29T14:48:46.812Z,36.6
2018-05-29T14:49:56.566Z,36.09
2018-05-29T14:51:06.579Z,35.91
2018-05-29T14:52:16.818Z,35.9
2018-05-29T14:53:27.005Z,36.09
2018-05-29T14:54:37.052Z,35.91
2018-05-29T14:55:47.072Z,35.98
2018-05-29T14:56:57.097Z,36
2018-05-29T14:58:07.086Z,36.17
2018-05-29T14:59:17.093Z,36.54
2018-05-29T15:00:27.140Z,36.72
2018-05-29T15:01:36.870Z,36.91
2018-05-29T15:02:46.857Z,36.97
2018-05-29T15:03:56.850Z,37.22